sensor_id;sensor_type;location;lat;lon;timestamp;P1;durP1;ratioP1;P2;durP2;ratioP2
58460;SDS011;45558;37.752;-97.822;2023-06-04T00:01:22;3.92;;;2.45;;
58460;SDS011;45558;37.752;-97.822;2023-06-04T00:03:48;3.08;;;2.13;;
58460;SDS011;45558;37.752;-97.822;2023-06-04T00:06:13;7.30;;;2.72;;
58460;SDS011;45558;37.752;-97.822;2023-06-04T00:08:39;5.50;;;2.47;;
58460;SDS011;45558;37.752;-97.822;2023-06-04T00:11:05;5.90;;;2.67;;
58460;SDS011;45558;37.752;-97.822;2023-06-04T00:13:31;4.10;;;2.63;;
58460;SDS011;45558;37.752;-97.822;2023-06-04T00:15:56;7.50;;;3.40;;
58460;SDS011;45558;37.752;-97.822;2023-06-04T00:18:22;6.78;;;2.55;;
58460;SDS011;45558;37.752;-97.822;2023-06-04T00:20:47;3.58;;;2.00;;
58460;SDS011;45558;37.752;-97.822;2023-06-04T00:23:13;5.50;;;2.40;;
58460;SDS011;45558;37.752;-97.822;2023-06-04T00:25:39;4.47;;;2.70;;
58460;SDS011;45558;37.752;-97.822;2023-06-04T00:28:05;3.38;;;2.08;;
58460;SDS011;45558;37.752;-97.822;2023-06-04T00:30:31;4.85;;;2.50;;
58460;SDS011;45558;37.752;-97.822;2023-06-04T00:32:57;6.63;;;2.80;;
58460;SDS011;45558;37.752;-97.822;2023-06-04T00:35:22;9.70;;;2.40;;
58460;SDS011;45558;37.752;-97.822;2023-06-04T00:37:48;5.10;;;2.47;;
58460;SDS011;45558;37.752;-97.822;2023-06-04T00:40:14;8.40;;;2.60;;
58460;SDS011;45558;37.752;-97.822;2023-06-04T00:42:40;3.97;;;2.60;;
58460;SDS011;45558;37.752;-97.822;2023-06-04T00:45:06;9.65;;;3.53;;
58460;SDS011;45558;37.752;-97.822;2023-06-04T00:47:34;4.22;;;2.35;;
58460;SDS011;45558;37.752;-97.822;2023-06-04T00:50:00;6.15;;;2.50;;
58460;SDS011;45558;37.752;-97.822;2023-06-04T00:52:26;8.57;;;3.00;;
58460;SDS011;45558;37.752;-97.822;2023-06-04T00:54:51;4.60;;;2.42;;
58460;SDS011;45558;37.752;-97.822;2023-06-04T00:57:20;5.88;;;2.72;;
58460;SDS011;45558;37.752;-97.822;2023-06-04T00:59:46;8.23;;;2.90;;
58460;SDS011;45558;37.752;-97.822;2023-06-04T01:02:13;4.43;;;2.80;;
58460;SDS011;45558;37.752;-97.822;2023-06-04T01:07:46;6.47;;;2.90;;
58460;SDS011;45558;37.752;-97.822;2023-06-04T01:10:13;5.40;;;2.40;;
58460;SDS011;45558;37.752;-97.822;2023-06-04T01:12:40;5.55;;;2.58;;
58460;SDS011;45558;37.752;-97.822;2023-06-04T01:15:06;4.57;;;2.47;;
58460;SDS011;45558;37.752;-97.822;2023-06-04T01:17:43;7.22;;;2.80;;
58460;SDS011;45558;37.752;-97.822;2023-06-04T01:25:25;5.22;;;2.80;;
58460;SDS011;45558;37.752;-97.822;2023-06-04T01:27:59;4.68;;;2.22;;
58460;SDS011;45558;37.752;-97.822;2023-06-04T01:30:28;4.07;;;2.55;;
58460;SDS011;45558;37.752;-97.822;2023-06-04T01:32:55;6.60;;;3.42;;
58460;SDS011;45558;37.752;-97.822;2023-06-04T01:35:21;4.65;;;2.70;;
58460;SDS011;45558;37.752;-97.822;2023-06-04T01:37:48;8.68;;;2.60;;
58460;SDS011;45558;37.752;-97.822;2023-06-04T01:40:14;5.38;;;3.63;;
58460;SDS011;45558;37.752;-97.822;2023-06-04T01:42:43;6.13;;;3.00;;
58460;SDS011;45558;37.752;-97.822;2023-06-04T01:45:09;7.65;;;3.20;;
58460;SDS011;45558;37.752;-97.822;2023-06-04T01:47:35;4.63;;;3.08;;
58460;SDS011;45558;37.752;-97.822;2023-06-04T01:50:02;5.80;;;3.08;;
58460;SDS011;45558;37.752;-97.822;2023-06-04T01:52:29;6.90;;;3.13;;
58460;SDS011;45558;37.752;-97.822;2023-06-04T01:54:54;7.10;;;2.85;;
58460;SDS011;45558;37.752;-97.822;2023-06-04T01:57:21;4.90;;;2.85;;
58460;SDS011;45558;37.752;-97.822;2023-06-04T01:59:47;6.47;;;2.70;;
58460;SDS011;45558;37.752;-97.822;2023-06-04T02:02:13;6.97;;;3.28;;
58460;SDS011;45558;37.752;-97.822;2023-06-04T02:04:40;4.63;;;3.10;;
58460;SDS011;45558;37.752;-97.822;2023-06-04T02:07:09;9.10;;;3.25;;
58460;SDS011;45558;37.752;-97.822;2023-06-04T02:09:35;5.63;;;3.35;;
58460;SDS011;45558;37.752;-97.822;2023-06-04T02:12:01;7.75;;;2.97;;
58460;SDS011;45558;37.752;-97.822;2023-06-04T02:14:27;13.27;;;3.28;;
58460;SDS011;45558;37.752;-97.822;2023-06-04T02:16:52;5.60;;;2.80;;
58460;SDS011;45558;37.752;-97.822;2023-06-04T02:19:19;5.13;;;2.90;;
58460;SDS011;45558;37.752;-97.822;2023-06-04T02:21:45;6.50;;;2.85;;
58460;SDS011;45558;37.752;-97.822;2023-06-04T02:24:12;6.50;;;3.05;;
58460;SDS011;45558;37.752;-97.822;2023-06-04T02:26:37;4.22;;;2.80;;
58460;SDS011;45558;37.752;-97.822;2023-06-04T02:29:03;5.15;;;3.13;;
58460;SDS011;45558;37.752;-97.822;2023-06-04T02:31:29;3.72;;;2.78;;
58460;SDS011;45558;37.752;-97.822;2023-06-04T02:33:56;9.00;;;3.33;;
58460;SDS011;45558;37.752;-97.822;2023-06-04T02:36:21;5.68;;;3.25;;
58460;SDS011;45558;37.752;-97.822;2023-06-04T02:38:47;7.05;;;3.63;;
58460;SDS011;45558;37.752;-97.822;2023-06-04T02:41:12;6.38;;;3.33;;
58460;SDS011;45558;37.752;-97.822;2023-06-04T02:43:38;7.47;;;3.20;;
58460;SDS011;45558;37.752;-97.822;2023-06-04T02:46:04;7.00;;;3.17;;
58460;SDS011;45558;37.752;-97.822;2023-06-04T02:48:31;6.20;;;2.88;;
58460;SDS011;45558;37.752;-97.822;2023-06-04T02:50:57;7.10;;;3.00;;
58460;SDS011;45558;37.752;-97.822;2023-06-04T02:53:22;8.07;;;4.53;;
58460;SDS011;45558;37.752;-97.822;2023-06-04T02:55:49;7.13;;;3.28;;
58460;SDS011;45558;37.752;-97.822;2023-06-04T02:58:16;6.60;;;3.25;;
58460;SDS011;45558;37.752;-97.822;2023-06-04T03:00:41;9.02;;;3.28;;
58460;SDS011;45558;37.752;-97.822;2023-06-04T03:03:07;7.03;;;3.80;;
58460;SDS011;45558;37.752;-97.822;2023-06-04T03:05:33;6.20;;;3.67;;
58460;SDS011;45558;37.752;-97.822;2023-06-04T03:08:00;6.18;;;3.33;;
58460;SDS011;45558;37.752;-97.822;2023-06-04T03:10:27;5.50;;;3.55;;
58460;SDS011;45558;37.752;-97.822;2023-06-04T03:12:53;5.55;;;3.08;;
58460;SDS011;45558;37.752;-97.822;2023-06-04T03:15:18;3.88;;;2.72;;
58460;SDS011;45558;37.752;-97.822;2023-06-04T03:17:44;6.47;;;3.40;;
58460;SDS011;45558;37.752;-97.822;2023-06-04T03:20:10;8.02;;;4.15;;
58460;SDS011;45558;37.752;-97.822;2023-06-04T03:22:36;5.78;;;4.15;;
58460;SDS011;45558;37.752;-97.822;2023-06-04T03:25:02;5.57;;;3.25;;
58460;SDS011;45558;37.752;-97.822;2023-06-04T03:27:28;7.97;;;4.00;;
58460;SDS011;45558;37.752;-97.822;2023-06-04T03:29:55;6.25;;;3.22;;
58460;SDS011;45558;37.752;-97.822;2023-06-04T03:32:20;5.63;;;3.58;;
58460;SDS011;45558;37.752;-97.822;2023-06-04T03:34:46;6.97;;;4.03;;
58460;SDS011;45558;37.752;-97.822;2023-06-04T03:37:12;6.20;;;3.17;;
58460;SDS011;45558;37.752;-97.822;2023-06-04T03:39:37;6.70;;;3.67;;
58460;SDS011;45558;37.752;-97.822;2023-06-04T03:42:03;7.97;;;3.65;;
58460;SDS011;45558;37.752;-97.822;2023-06-04T03:44:30;7.00;;;4.30;;
58460;SDS011;45558;37.752;-97.822;2023-06-04T03:46:55;5.57;;;3.65;;
58460;SDS011;45558;37.752;-97.822;2023-06-04T03:49:21;5.75;;;3.72;;
58460;SDS011;45558;37.752;-97.822;2023-06-04T03:51:47;6.97;;;3.42;;
58460;SDS011;45558;37.752;-97.822;2023-06-04T03:54:13;9.13;;;4.50;;
58460;SDS011;45558;37.752;-97.822;2023-06-04T03:56:45;8.32;;;4.32;;
58460;SDS011;45558;37.752;-97.822;2023-06-04T03:59:11;8.10;;;4.20;;
58460;SDS011;45558;37.752;-97.822;2023-06-04T04:01:37;7.28;;;4.40;;
58460;SDS011;45558;37.752;-97.822;2023-06-04T04:04:03;14.38;;;5.10;;
58460;SDS011;45558;37.752;-97.822;2023-06-04T04:06:30;11.27;;;4.78;;
58460;SDS011;45558;37.752;-97.822;2023-06-04T04:08:55;8.57;;;4.03;;
58460;SDS011;45558;37.752;-97.822;2023-06-04T04:11:21;8.55;;;4.47;;
58460;SDS011;45558;37.752;-97.822;2023-06-04T04:13:47;8.18;;;4.68;;
58460;SDS011;45558;37.752;-97.822;2023-06-04T04:16:13;9.75;;;4.68;;
58460;SDS011;45558;37.752;-97.822;2023-06-04T04:22:00;7.95;;;4.43;;
58460;SDS011;45558;37.752;-97.822;2023-06-04T04:24:26;8.93;;;4.93;;
58460;SDS011;45558;37.752;-97.822;2023-06-04T04:26:52;8.52;;;4.07;;
58460;SDS011;45558;37.752;-97.822;2023-06-04T04:29:21;10.38;;;4.20;;
58460;SDS011;45558;37.752;-97.822;2023-06-04T04:31:53;10.02;;;4.53;;
58460;SDS011;45558;37.752;-97.822;2023-06-04T04:34:22;7.95;;;5.00;;
58460;SDS011;45558;37.752;-97.822;2023-06-04T04:36:50;11.73;;;4.75;;
58460;SDS011;45558;37.752;-97.822;2023-06-04T04:39:22;9.52;;;4.75;;
58460;SDS011;45558;37.752;-97.822;2023-06-04T04:41:48;7.97;;;4.35;;
58460;SDS011;45558;37.752;-97.822;2023-06-04T04:44:14;7.15;;;4.15;;
58460;SDS011;45558;37.752;-97.822;2023-06-04T04:46:40;8.20;;;4.28;;
58460;SDS011;45558;37.752;-97.822;2023-06-04T04:49:05;6.75;;;3.55;;
58460;SDS011;45558;37.752;-97.822;2023-06-04T04:51:31;8.85;;;4.10;;
58460;SDS011;45558;37.752;-97.822;2023-06-04T04:53:57;7.47;;;3.92;;
58460;SDS011;45558;37.752;-97.822;2023-06-04T04:56:25;7.88;;;4.30;;
58460;SDS011;45558;37.752;-97.822;2023-06-04T04:58:52;8.55;;;4.53;;
58460;SDS011;45558;37.752;-97.822;2023-06-04T05:01:18;7.65;;;4.28;;
58460;SDS011;45558;37.752;-97.822;2023-06-04T05:03:44;14.90;;;5.57;;
58460;SDS011;45558;37.752;-97.822;2023-06-04T05:06:10;7.85;;;4.43;;
58460;SDS011;45558;37.752;-97.822;2023-06-04T05:08:36;14.57;;;5.15;;
58460;SDS011;45558;37.752;-97.822;2023-06-04T05:11:01;8.85;;;4.38;;
58460;SDS011;45558;37.752;-97.822;2023-06-04T05:13:27;9.18;;;5.35;;
58460;SDS011;45558;37.752;-97.822;2023-06-04T05:15:53;10.65;;;5.13;;
58460;SDS011;45558;37.752;-97.822;2023-06-04T05:18:19;7.80;;;4.93;;
58460;SDS011;45558;37.752;-97.822;2023-06-04T05:20:57;12.95;;;5.30;;
58460;SDS011;45558;37.752;-97.822;2023-06-04T05:23:25;9.65;;;5.00;;
58460;SDS011;45558;37.752;-97.822;2023-06-04T05:25:51;15.95;;;5.70;;
58460;SDS011;45558;37.752;-97.822;2023-06-04T05:28:17;12.00;;;5.25;;
58460;SDS011;45558;37.752;-97.822;2023-06-04T05:30:43;13.70;;;5.90;;
58460;SDS011;45558;37.752;-97.822;2023-06-04T05:33:09;11.85;;;5.47;;
58460;SDS011;45558;37.752;-97.822;2023-06-04T05:35:42;9.43;;;4.57;;
58460;SDS011;45558;37.752;-97.822;2023-06-04T05:38:11;13.95;;;5.20;;
58460;SDS011;45558;37.752;-97.822;2023-06-04T05:40:42;8.65;;;4.97;;
58460;SDS011;45558;37.752;-97.822;2023-06-04T05:43:08;13.70;;;5.35;;
58460;SDS011;45558;37.752;-97.822;2023-06-04T05:45:34;9.82;;;5.57;;
58460;SDS011;45558;37.752;-97.822;2023-06-04T05:48:00;10.52;;;5.40;;
58460;SDS011;45558;37.752;-97.822;2023-06-04T05:50:26;8.52;;;5.20;;
58460;SDS011;45558;37.752;-97.822;2023-06-04T05:52:52;56.80;;;9.45;;
58460;SDS011;45558;37.752;-97.822;2023-06-04T05:55:17;8.40;;;4.63;;
58460;SDS011;45558;37.752;-97.822;2023-06-04T05:57:43;7.28;;;4.95;;
58460;SDS011;45558;37.752;-97.822;2023-06-04T06:00:09;9.52;;;5.30;;
58460;SDS011;45558;37.752;-97.822;2023-06-04T06:02:35;10.07;;;5.43;;
58460;SDS011;45558;37.752;-97.822;2023-06-04T06:05:02;8.18;;;4.82;;
58460;SDS011;45558;37.752;-97.822;2023-06-04T06:07:28;13.60;;;5.38;;
58460;SDS011;45558;37.752;-97.822;2023-06-04T06:09:55;15.13;;;4.90;;
58460;SDS011;45558;37.752;-97.822;2023-06-04T06:12:20;8.98;;;4.95;;
58460;SDS011;45558;37.752;-97.822;2023-06-04T06:14:46;11.38;;;6.13;;
58460;SDS011;45558;37.752;-97.822;2023-06-04T06:17:11;10.43;;;5.53;;
58460;SDS011;45558;37.752;-97.822;2023-06-04T06:19:37;10.70;;;5.68;;
58460;SDS011;45558;37.752;-97.822;2023-06-04T06:22:04;19.15;;;6.30;;
58460;SDS011;45558;37.752;-97.822;2023-06-04T06:24:30;11.45;;;5.10;;
58460;SDS011;45558;37.752;-97.822;2023-06-04T06:26:55;10.38;;;5.18;;
58460;SDS011;45558;37.752;-97.822;2023-06-04T06:29:21;9.10;;;5.30;;
58460;SDS011;45558;37.752;-97.822;2023-06-04T06:31:47;10.88;;;4.80;;
58460;SDS011;45558;37.752;-97.822;2023-06-04T06:34:13;11.00;;;5.57;;
58460;SDS011;45558;37.752;-97.822;2023-06-04T06:36:38;10.68;;;5.40;;
58460;SDS011;45558;37.752;-97.822;2023-06-04T06:39:04;9.52;;;5.75;;
58460;SDS011;45558;37.752;-97.822;2023-06-04T06:41:31;10.93;;;5.22;;
58460;SDS011;45558;37.752;-97.822;2023-06-04T06:43:57;10.27;;;6.10;;
58460;SDS011;45558;37.752;-97.822;2023-06-04T06:46:23;10.43;;;5.00;;
58460;SDS011;45558;37.752;-97.822;2023-06-04T06:48:48;11.93;;;5.88;;
58460;SDS011;45558;37.752;-97.822;2023-06-04T06:51:14;10.15;;;5.43;;
58460;SDS011;45558;37.752;-97.822;2023-06-04T06:53:40;12.23;;;5.80;;
58460;SDS011;45558;37.752;-97.822;2023-06-04T06:56:06;9.75;;;5.30;;
58460;SDS011;45558;37.752;-97.822;2023-06-04T06:58:32;8.80;;;4.97;;
58460;SDS011;45558;37.752;-97.822;2023-06-04T07:00:58;9.00;;;5.18;;
58460;SDS011;45558;37.752;-97.822;2023-06-04T07:03:24;10.85;;;5.72;;
58460;SDS011;45558;37.752;-97.822;2023-06-04T07:05:50;13.55;;;5.07;;
58460;SDS011;45558;37.752;-97.822;2023-06-04T07:08:16;7.65;;;4.70;;
58460;SDS011;45558;37.752;-97.822;2023-06-04T07:10:41;11.70;;;6.75;;
58460;SDS011;45558;37.752;-97.822;2023-06-04T07:13:07;10.13;;;5.15;;
58460;SDS011;45558;37.752;-97.822;2023-06-04T07:15:33;8.65;;;5.53;;
58460;SDS011;45558;37.752;-97.822;2023-06-04T07:17:59;10.38;;;5.53;;
58460;SDS011;45558;37.752;-97.822;2023-06-04T07:20:25;11.50;;;5.00;;
58460;SDS011;45558;37.752;-97.822;2023-06-04T07:22:50;9.80;;;5.43;;
58460;SDS011;45558;37.752;-97.822;2023-06-04T07:25:16;10.50;;;4.85;;
58460;SDS011;45558;37.752;-97.822;2023-06-04T07:27:42;8.18;;;5.40;;
58460;SDS011;45558;37.752;-97.822;2023-06-04T07:30:09;8.07;;;5.18;;
58460;SDS011;45558;37.752;-97.822;2023-06-04T07:32:34;31.20;;;6.18;;
58460;SDS011;45558;37.752;-97.822;2023-06-04T07:35:01;11.40;;;5.18;;
58460;SDS011;45558;37.752;-97.822;2023-06-04T07:37:27;10.98;;;4.47;;
58460;SDS011;45558;37.752;-97.822;2023-06-04T07:39:54;11.85;;;4.93;;
58460;SDS011;45558;37.752;-97.822;2023-06-04T07:42:20;7.15;;;4.40;;
58460;SDS011;45558;37.752;-97.822;2023-06-04T07:44:46;8.77;;;3.80;;
58460;SDS011;45558;37.752;-97.822;2023-06-04T07:47:11;11.15;;;4.25;;
58460;SDS011;45558;37.752;-97.822;2023-06-04T07:49:37;7.20;;;4.28;;
58460;SDS011;45558;37.752;-97.822;2023-06-04T07:52:02;8.18;;;4.25;;
58460;SDS011;45558;37.752;-97.822;2023-06-04T07:54:29;9.45;;;4.10;;
58460;SDS011;45558;37.752;-97.822;2023-06-04T07:56:54;13.27;;;3.38;;
58460;SDS011;45558;37.752;-97.822;2023-06-04T07:59:23;6.15;;;2.97;;
58460;SDS011;45558;37.752;-97.822;2023-06-04T08:01:49;7.28;;;3.10;;
58460;SDS011;45558;37.752;-97.822;2023-06-04T08:04:16;11.23;;;3.65;;
58460;SDS011;45558;37.752;-97.822;2023-06-04T08:06:42;11.00;;;3.60;;
58460;SDS011;45558;37.752;-97.822;2023-06-04T08:09:09;7.65;;;3.80;;
58460;SDS011;45558;37.752;-97.822;2023-06-04T08:11:36;8.82;;;3.88;;
58460;SDS011;45558;37.752;-97.822;2023-06-04T08:14:02;9.90;;;3.22;;
58460;SDS011;45558;37.752;-97.822;2023-06-04T08:16:28;8.90;;;3.35;;
58460;SDS011;45558;37.752;-97.822;2023-06-04T08:18:54;9.18;;;3.30;;
58460;SDS011;45558;37.752;-97.822;2023-06-04T08:21:26;5.50;;;3.53;;
58460;SDS011;45558;37.752;-97.822;2023-06-04T08:23:52;10.10;;;3.72;;
58460;SDS011;45558;37.752;-97.822;2023-06-04T08:26:18;9.55;;;3.28;;
58460;SDS011;45558;37.752;-97.822;2023-06-04T08:28:47;11.82;;;3.38;;
58460;SDS011;45558;37.752;-97.822;2023-06-04T08:31:13;9.73;;;3.60;;
58460;SDS011;45558;37.752;-97.822;2023-06-04T08:33:38;10.50;;;3.88;;
58460;SDS011;45558;37.752;-97.822;2023-06-04T08:36:04;9.50;;;3.83;;
58460;SDS011;45558;37.752;-97.822;2023-06-04T08:38:30;14.77;;;3.90;;
58460;SDS011;45558;37.752;-97.822;2023-06-04T08:40:58;6.72;;;3.38;;
58460;SDS011;45558;37.752;-97.822;2023-06-04T08:43:30;7.55;;;2.70;;
58460;SDS011;45558;37.752;-97.822;2023-06-04T08:45:58;8.13;;;3.38;;
58460;SDS011;45558;37.752;-97.822;2023-06-04T08:48:26;4.22;;;2.70;;
58460;SDS011;45558;37.752;-97.822;2023-06-04T08:50:53;6.95;;;2.85;;
58460;SDS011;45558;37.752;-97.822;2023-06-04T08:53:21;10.18;;;3.33;;
58460;SDS011;45558;37.752;-97.822;2023-06-04T08:55:47;8.73;;;3.33;;
58460;SDS011;45558;37.752;-97.822;2023-06-04T08:58:15;10.35;;;3.13;;
58460;SDS011;45558;37.752;-97.822;2023-06-04T09:00:42;14.35;;;4.43;;
58460;SDS011;45558;37.752;-97.822;2023-06-04T09:03:07;11.55;;;3.92;;
58460;SDS011;45558;37.752;-97.822;2023-06-04T09:05:33;15.10;;;4.43;;
58460;SDS011;45558;37.752;-97.822;2023-06-04T09:08:00;10.02;;;3.70;;
58460;SDS011;45558;37.752;-97.822;2023-06-04T09:10:26;6.43;;;2.65;;
58460;SDS011;45558;37.752;-97.822;2023-06-04T09:12:54;6.85;;;2.65;;
58460;SDS011;45558;37.752;-97.822;2023-06-04T09:15:22;8.43;;;2.78;;
58460;SDS011;45558;37.752;-97.822;2023-06-04T09:17:49;6.97;;;2.60;;
58460;SDS011;45558;37.752;-97.822;2023-06-04T09:20:18;6.40;;;2.65;;
58460;SDS011;45558;37.752;-97.822;2023-06-04T09:22:47;8.20;;;2.55;;
58460;SDS011;45558;37.752;-97.822;2023-06-04T09:25:19;13.80;;;3.00;;
58460;SDS011;45558;37.752;-97.822;2023-06-04T09:27:52;12.88;;;2.85;;
58460;SDS011;45558;37.752;-97.822;2023-06-04T09:30:20;5.97;;;2.22;;
58460;SDS011;45558;37.752;-97.822;2023-06-04T09:32:46;7.05;;;2.13;;
58460;SDS011;45558;37.752;-97.822;2023-06-04T09:37:40;14.57;;;3.55;;
58460;SDS011;45558;37.752;-97.822;2023-06-04T09:40:16;8.45;;;2.58;;
58460;SDS011;45558;37.752;-97.822;2023-06-04T09:42:45;6.00;;;2.10;;
58460;SDS011;45558;37.752;-97.822;2023-06-04T09:45:33;9.48;;;2.05;;
58460;SDS011;45558;37.752;-97.822;2023-06-04T09:48:00;10.60;;;2.95;;
58460;SDS011;45558;37.752;-97.822;2023-06-04T09:50:30;11.00;;;2.17;;
58460;SDS011;45558;37.752;-97.822;2023-06-04T09:52:58;6.93;;;2.38;;
58460;SDS011;45558;37.752;-97.822;2023-06-04T09:55:25;7.93;;;1.92;;
58460;SDS011;45558;37.752;-97.822;2023-06-04T09:57:51;6.57;;;2.30;;
58460;SDS011;45558;37.752;-97.822;2023-06-04T10:00:22;6.82;;;1.92;;
58460;SDS011;45558;37.752;-97.822;2023-06-04T10:02:48;12.18;;;3.47;;
58460;SDS011;45558;37.752;-97.822;2023-06-04T10:05:15;9.30;;;2.10;;
58460;SDS011;45558;37.752;-97.822;2023-06-04T10:07:42;8.07;;;2.30;;
58460;SDS011;45558;37.752;-97.822;2023-06-04T10:10:16;5.35;;;1.90;;
58460;SDS011;45558;37.752;-97.822;2023-06-04T10:12:43;5.38;;;2.22;;
58460;SDS011;45558;37.752;-97.822;2023-06-04T10:15:12;5.40;;;2.40;;
58460;SDS011;45558;37.752;-97.822;2023-06-04T10:17:38;4.78;;;2.13;;
58460;SDS011;45558;37.752;-97.822;2023-06-04T10:20:07;6.50;;;2.17;;
58460;SDS011;45558;37.752;-97.822;2023-06-04T10:22:34;8.35;;;2.17;;
58460;SDS011;45558;37.752;-97.822;2023-06-04T10:25:00;9.40;;;2.38;;
58460;SDS011;45558;37.752;-97.822;2023-06-04T10:27:29;6.72;;;2.60;;
58460;SDS011;45558;37.752;-97.822;2023-06-04T10:29:56;15.13;;;2.50;;
58460;SDS011;45558;37.752;-97.822;2023-06-04T10:32:23;4.95;;;2.40;;
58460;SDS011;45558;37.752;-97.822;2023-06-04T10:34:52;6.97;;;1.83;;
58460;SDS011;45558;37.752;-97.822;2023-06-04T10:37:21;10.45;;;2.88;;
58460;SDS011;45558;37.752;-97.822;2023-06-04T10:39:54;6.53;;;1.73;;
58460;SDS011;45558;37.752;-97.822;2023-06-04T10:42:21;5.90;;;2.05;;
58460;SDS011;45558;37.752;-97.822;2023-06-04T10:44:48;6.32;;;2.03;;
58460;SDS011;45558;37.752;-97.822;2023-06-04T10:47:24;6.82;;;1.98;;
58460;SDS011;45558;37.752;-97.822;2023-06-04T10:49:52;6.28;;;2.40;;
58460;SDS011;45558;37.752;-97.822;2023-06-04T10:52:18;11.32;;;2.28;;
58460;SDS011;45558;37.752;-97.822;2023-06-04T10:54:45;12.05;;;2.42;;
58460;SDS011;45558;37.752;-97.822;2023-06-04T10:57:14;6.78;;;1.73;;
58460;SDS011;45558;37.752;-97.822;2023-06-04T10:59:41;12.93;;;2.22;;
58460;SDS011;45558;37.752;-97.822;2023-06-04T11:02:18;6.80;;;1.67;;
58460;SDS011;45558;37.752;-97.822;2023-06-04T11:04:44;4.72;;;1.63;;
58460;SDS011;45558;37.752;-97.822;2023-06-04T11:10:37;5.95;;;2.05;;
58460;SDS011;45558;37.752;-97.822;2023-06-04T11:13:04;7.80;;;2.25;;
58460;SDS011;45558;37.752;-97.822;2023-06-04T11:15:45;9.80;;;2.20;;
58460;SDS011;45558;37.752;-97.822;2023-06-04T11:18:13;12.43;;;2.40;;
58460;SDS011;45558;37.752;-97.822;2023-06-04T11:20:40;7.97;;;2.13;;
58460;SDS011;45558;37.752;-97.822;2023-06-04T11:23:07;5.07;;;1.92;;
58460;SDS011;45558;37.752;-97.822;2023-06-04T11:25:33;7.25;;;2.55;;
58460;SDS011;45558;37.752;-97.822;2023-06-04T11:28:00;13.35;;;3.75;;
58460;SDS011;45558;37.752;-97.822;2023-06-04T11:30:27;8.32;;;3.25;;
58460;SDS011;45558;37.752;-97.822;2023-06-04T11:32:59;6.20;;;2.10;;
58460;SDS011;45558;37.752;-97.822;2023-06-04T11:35:26;14.10;;;2.28;;
58460;SDS011;45558;37.752;-97.822;2023-06-04T11:37:53;5.93;;;2.28;;
58460;SDS011;45558;37.752;-97.822;2023-06-04T11:40:20;5.85;;;2.03;;
58460;SDS011;45558;37.752;-97.822;2023-06-04T11:42:46;6.90;;;1.92;;
58460;SDS011;45558;37.752;-97.822;2023-06-04T11:45:13;6.55;;;2.90;;
58460;SDS011;45558;37.752;-97.822;2023-06-04T11:47:50;6.38;;;1.88;;
58460;SDS011;45558;37.752;-97.822;2023-06-04T11:50:17;7.20;;;2.45;;
58460;SDS011;45558;37.752;-97.822;2023-06-04T11:52:43;5.00;;;1.85;;
58460;SDS011;45558;37.752;-97.822;2023-06-04T11:55:10;6.47;;;2.15;;
58460;SDS011;45558;37.752;-97.822;2023-06-04T11:57:37;7.32;;;2.22;;
58460;SDS011;45558;37.752;-97.822;2023-06-04T12:00:03;9.10;;;2.38;;
58460;SDS011;45558;37.752;-97.822;2023-06-04T12:02:36;5.30;;;2.05;;
58460;SDS011;45558;37.752;-97.822;2023-06-04T12:05:12;6.68;;;1.77;;
58460;SDS011;45558;37.752;-97.822;2023-06-04T12:07:43;4.95;;;2.30;;
58460;SDS011;45558;37.752;-97.822;2023-06-04T12:10:12;11.07;;;2.58;;
58460;SDS011;45558;37.752;-97.822;2023-06-04T12:12:38;12.70;;;3.38;;
58460;SDS011;45558;37.752;-97.822;2023-06-04T12:15:06;8.80;;;2.00;;
58460;SDS011;45558;37.752;-97.822;2023-06-04T12:17:32;5.55;;;1.98;;
58460;SDS011;45558;37.752;-97.822;2023-06-04T12:19:58;4.40;;;1.80;;
58460;SDS011;45558;37.752;-97.822;2023-06-04T12:22:24;6.78;;;1.73;;
58460;SDS011;45558;37.752;-97.822;2023-06-04T12:27:25;9.88;;;1.65;;
58460;SDS011;45558;37.752;-97.822;2023-06-04T12:32:21;5.85;;;2.20;;
58460;SDS011;45558;37.752;-97.822;2023-06-04T12:34:46;6.50;;;2.25;;
58460;SDS011;45558;37.752;-97.822;2023-06-04T12:37:13;7.32;;;1.60;;
58460;SDS011;45558;37.752;-97.822;2023-06-04T12:39:39;7.25;;;2.22;;
58460;SDS011;45558;37.752;-97.822;2023-06-04T12:42:05;4.18;;;2.03;;
58460;SDS011;45558;37.752;-97.822;2023-06-04T12:44:35;7.53;;;2.05;;
58460;SDS011;45558;37.752;-97.822;2023-06-04T12:47:01;5.50;;;1.88;;
58460;SDS011;45558;37.752;-97.822;2023-06-04T12:49:28;3.38;;;1.55;;
58460;SDS011;45558;37.752;-97.822;2023-06-04T12:51:54;4.82;;;2.10;;
58460;SDS011;45558;37.752;-97.822;2023-06-04T12:54:19;4.80;;;2.20;;
58460;SDS011;45558;37.752;-97.822;2023-06-04T12:56:45;6.88;;;1.90;;
58460;SDS011;45558;37.752;-97.822;2023-06-04T12:59:12;5.95;;;1.83;;
58460;SDS011;45558;37.752;-97.822;2023-06-04T13:01:37;5.32;;;2.08;;
58460;SDS011;45558;37.752;-97.822;2023-06-04T13:04:04;3.88;;;2.00;;
58460;SDS011;45558;37.752;-97.822;2023-06-04T13:06:30;6.97;;;2.35;;
58460;SDS011;45558;37.752;-97.822;2023-06-04T13:08:57;3.83;;;1.77;;
58460;SDS011;45558;37.752;-97.822;2023-06-04T13:11:22;5.47;;;1.90;;
58460;SDS011;45558;37.752;-97.822;2023-06-04T13:13:49;5.50;;;1.58;;
58460;SDS011;45558;37.752;-97.822;2023-06-04T13:16:15;4.15;;;1.85;;
58460;SDS011;45558;37.752;-97.822;2023-06-04T13:18:40;3.65;;;1.60;;
58460;SDS011;45558;37.752;-97.822;2023-06-04T13:21:06;4.10;;;1.85;;
58460;SDS011;45558;37.752;-97.822;2023-06-04T13:23:33;6.97;;;1.85;;
58460;SDS011;45558;37.752;-97.822;2023-06-04T13:25:58;4.45;;;1.38;;
58460;SDS011;45558;37.752;-97.822;2023-06-04T13:28:25;5.03;;;1.90;;
58460;SDS011;45558;37.752;-97.822;2023-06-04T13:30:51;6.30;;;2.40;;
58460;SDS011;45558;37.752;-97.822;2023-06-04T13:33:18;5.20;;;2.22;;
58460;SDS011;45558;37.752;-97.822;2023-06-04T13:35:45;5.47;;;2.22;;
58460;SDS011;45558;37.752;-97.822;2023-06-04T13:38:11;3.88;;;1.73;;
58460;SDS011;45558;37.752;-97.822;2023-06-04T13:40:37;2.78;;;1.60;;
58460;SDS011;45558;37.752;-97.822;2023-06-04T13:43:04;4.97;;;1.48;;
58460;SDS011;45558;37.752;-97.822;2023-06-04T13:45:34;3.72;;;1.27;;
58460;SDS011;45558;37.752;-97.822;2023-06-04T13:48:00;3.00;;;1.55;;
58460;SDS011;45558;37.752;-97.822;2023-06-04T13:52:55;5.00;;;1.90;;
58460;SDS011;45558;37.752;-97.822;2023-06-04T13:55:21;3.92;;;1.85;;
58460;SDS011;45558;37.752;-97.822;2023-06-04T13:57:46;10.55;;;1.88;;
58460;SDS011;45558;37.752;-97.822;2023-06-04T14:00:12;3.40;;;1.60;;
58460;SDS011;45558;37.752;-97.822;2023-06-04T14:02:39;3.67;;;1.88;;
58460;SDS011;45558;37.752;-97.822;2023-06-04T14:05:05;6.13;;;1.83;;
58460;SDS011;45558;37.752;-97.822;2023-06-04T14:07:31;7.35;;;1.88;;
58460;SDS011;45558;37.752;-97.822;2023-06-04T14:09:56;4.07;;;1.50;;
58460;SDS011;45558;37.752;-97.822;2023-06-04T14:12:22;3.28;;;1.67;;
58460;SDS011;45558;37.752;-97.822;2023-06-04T14:14:48;4.03;;;1.50;;
58460;SDS011;45558;37.752;-97.822;2023-06-04T14:17:15;3.17;;;1.55;;
58460;SDS011;45558;37.752;-97.822;2023-06-04T14:19:41;4.57;;;1.83;;
58460;SDS011;45558;37.752;-97.822;2023-06-04T14:22:07;4.95;;;1.50;;
58460;SDS011;45558;37.752;-97.822;2023-06-04T14:24:33;4.85;;;1.40;;
58460;SDS011;45558;37.752;-97.822;2023-06-04T14:26:58;2.38;;;1.27;;
58460;SDS011;45558;37.752;-97.822;2023-06-04T14:29:25;12.80;;;1.88;;
58460;SDS011;45558;37.752;-97.822;2023-06-04T14:31:50;4.93;;;2.00;;
58460;SDS011;45558;37.752;-97.822;2023-06-04T14:34:17;8.90;;;1.80;;
58460;SDS011;45558;37.752;-97.822;2023-06-04T14:36:43;2.60;;;1.27;;
58460;SDS011;45558;37.752;-97.822;2023-06-04T14:39:08;3.10;;;1.42;;
58460;SDS011;45558;37.752;-97.822;2023-06-04T14:41:34;2.20;;;1.02;;